createdAt,value
2023-04-02T06:43:05.317Z,12.95
2023-04-02T06:46:39.245Z,12.30
2023-04-02T06:49:50.158Z,11.55
2023-04-02T06:52:11.530Z,9.80
2023-04-02T06:54:48.324Z,11.50
2023-04-02T07:16:51.353Z,12.73
2023-04-02T11:43:17.834Z,3.95
2023-04-02T11:45:21.796Z,3.75
2023-04-02T11:47:35.401Z,5.80
2023-04-02T11:49:52.425Z,4.80
2023-04-02T11:51:42.712Z,7.28
2023-04-02T11:53:18.548Z,5.18
2023-04-02T11:55:02.918Z,5.80
2023-04-02T12:36:42.648Z,3.20
2023-04-02T12:44:29.257Z,3.80
2023-04-02T12:46:23.503Z,4.00
2023-04-02T12:48:55.513Z,3.30
2023-04-02T12:51:07.586Z,3.08
2023-04-02T12:53:17.039Z,3.90
2023-04-02T12:58:00.386Z,7.28
2023-04-02T13:00:07.480Z,4.95
2023-04-02T13:02:18.158Z,6.63
2023-04-02T13:04:30.455Z,4.07
2023-04-02T13:08:54.307Z,2.80
2023-04-02T13:10:37.777Z,6.00
2023-04-02T13:12:47.894Z,2.58
2023-04-02T13:21:52.117Z,5.40
2023-04-02T13:23:49.517Z,5.38
2023-04-02T13:25:51.967Z,5.20
2023-04-02T13:27:56.813Z,4.43
2023-04-02T13:30:03.106Z,3.92
2023-04-02T13:35:21.441Z,4.22
2023-04-02T13:37:23.632Z,3.22
2023-04-02T13:39:01.082Z,4.90
2023-04-02T13:40:59.923Z,3.78
2023-04-02T13:58:09.867Z,2.47
2023-04-02T14:51:33.624Z,3.05
2023-04-02T14:53:27.428Z,4.85
2023-04-02T14:55:28.948Z,3.25
2023-04-02T14:59:23.064Z,2.80
2023-04-02T15:00:36.064Z,2.97
2023-04-02T15:15:39.330Z,6.07
2023-04-02T15:20:50.922Z,3.65
2023-04-02T15:49:25.282Z,6.93
2023-04-02T15:54:27.738Z,2.50
2023-04-02T15:57:11.263Z,2.97
2023-04-02T15:58:39.975Z,5.95
2023-04-02T16:00:30.204Z,4.22
2023-04-02T16:03:28.784Z,3.70
2023-04-02T16:13:42.470Z,4.80
2023-04-02T16:14:46.042Z,3.05
2023-04-02T16:30:01.643Z,3.92
2023-04-02T16:32:43.289Z,3.83
2023-04-02T16:37:17.551Z,4.97
2023-04-02T16:39:18.792Z,4.30
2023-04-02T16:44:28.563Z,3.28
2023-04-02T16:49:32.759Z,6.85
2023-04-02T16:51:18.216Z,3.65
2023-04-02T16:53:19.561Z,3.28
2023-04-02T16:55:57.378Z,5.55
2023-04-02T16:58:23.891Z,5.03
2023-04-02T17:00:06.617Z,5.15
2023-04-02T17:02:15.325Z,4.07
2023-04-02T17:04:02.222Z,2.47
2023-04-02T17:05:56.166Z,6.18
2023-04-02T17:08:12.437Z,4.25
2023-04-02T17:10:40.216Z,3.70
2023-04-02T17:12:28.924Z,4.53
2023-04-02T17:14:45.964Z,4.45
2023-04-02T17:16:33.023Z,3.05
2023-04-02T17:18:28.319Z,3.28
2023-04-02T17:20:18.438Z,4.03
2023-04-02T17:22:18.865Z,3.65
2023-04-02T17:24:20.812Z,4.40
2023-04-02T17:26:14.315Z,5.97
2023-04-02T17:27:56.849Z,5.60
2023-04-02T17:58:48.766Z,6.35
2023-04-02T18:03:18.030Z,4.10
2023-04-02T18:05:26.449Z,2.85
2023-04-02T18:07:32.537Z,5.68
2023-04-02T18:09:36.046Z,3.17
2023-04-02T18:11:56.209Z,4.70
2023-04-02T18:13:53.167Z,4.88
2023-04-02T18:19:56.191Z,5.05
2023-04-02T18:24:34.459Z,8.32
2023-04-02T18:27:45.072Z,4.63
2023-04-02T18:29:53.788Z,8.85
2023-04-02T18:32:23.984Z,6.22
2023-04-02T18:41:05.292Z,7.03
2023-04-02T18:46:35.824Z,6.38
2023-04-02T18:56:49.817Z,4.95
2023-04-02T18:58:57.815Z,14.32
2023-04-02T19:00:43.236Z,3.35
2023-04-02T19:02:21.392Z,2.60
2023-04-02T19:04:18.336Z,5.10
2023-04-02T19:06:30.054Z,9.10
2023-04-02T19:08:45.747Z,7.00
2023-04-02T19:10:32.042Z,5.68
2023-04-02T19:12:37.460Z,4.70
2023-04-02T19:14:24.228Z,5.55
2023-04-02T19:16:43.103Z,7.90
2023-04-02T19:18:35.303Z,6.75
2023-04-02T19:20:50.721Z,7.78
2023-04-02T19:23:04.878Z,5.15
2023-04-02T19:25:01.271Z,4.13
2023-04-02T19:27:07.727Z,6.57
2023-04-02T19:29:07.985Z,5.20
2023-04-02T19:30:53.796Z,5.57
2023-04-02T19:32:26.299Z,4.90
2023-04-02T19:35:06.612Z,5.60
2023-04-02T19:36:57.733Z,5.28
2023-04-02T19:38:58.269Z,6.78
2023-04-02T19:40:37.670Z,7.00
2023-04-02T19:42:40.721Z,3.95
2023-04-02T19:44:19.574Z,6.57
2023-04-02T19:50:21.202Z,6.25
2023-04-02T19:50:49.135Z,4.82
2023-04-02T19:52:33.370Z,7.07
2023-04-02T19:54:14.215Z,8.52
2023-04-02T19:55:59.184Z,9.27
2023-04-02T19:58:17.151Z,5.70
2023-04-02T20:02:44.163Z,7.75
2023-04-02T20:04:21.512Z,10.38
2023-04-02T20:05:20.843Z,4.82
2023-04-02T20:05:55.079Z,6.75
2023-04-02T20:07:28.094Z,5.18
2023-04-02T20:10:33.416Z,6.03
2023-04-02T20:12:13.331Z,8.18
2023-04-02T20:13:50.395Z,10.20
2023-04-02T20:15:23.913Z,6.10
2023-04-02T20:17:05.023Z,10.85
2023-04-02T20:18:40.927Z,12.50
2023-04-02T20:20:18.332Z,16.80
2023-04-02T20:21:57.636Z,13.57
2023-04-02T20:24:54.633Z,16.25
2023-04-02T20:26:30.458Z,17.45
2023-04-02T20:28:24.462Z,12.35
2023-04-02T20:30:10.325Z,17.92
2023-04-02T20:31:52.471Z,14.95
2023-04-02T20:33:27.984Z,12.13
2023-04-02T20:35:00.302Z,13.68
2023-04-02T20:36:32.831Z,15.13
2023-04-02T20:38:10.151Z,37.45
2023-04-02T20:39:49.640Z,16.15
2023-04-02T20:41:22.296Z,23.00
2023-04-02T20:42:55.568Z,17.88
2023-04-02T20:44:28.718Z,17.08
2023-04-02T20:46:06.075Z,17.70
2023-04-02T20:47:38.936Z,17.08
2023-04-02T20:50:45.177Z,14.75
2023-04-02T20:52:18.957Z,14.80
2023-04-02T20:53:51.214Z,11.20
2023-04-02T20:55:23.610Z,14.48
2023-04-02T20:56:55.985Z,9.00
2023-04-02T20:58:28.337Z,8.40
2023-04-02T21:00:02.817Z,8.70
2023-04-02T21:01:35.466Z,9.57
2023-04-02T21:03:10.123Z,10.05
2023-04-02T21:04:42.432Z,9.98
2023-04-02T21:06:19.454Z,8.85
2023-04-02T21:07:53.749Z,11.90
2023-04-02T21:09:26.064Z,7.75
2023-04-02T21:11:05.772Z,10.02
2023-04-02T21:12:40.184Z,10.23
2023-04-02T21:14:12.292Z,11.15
2023-04-02T21:15:44.709Z,7.97
2023-04-02T21:17:17.071Z,10.13
2023-04-02T21:18:51.138Z,9.18
2023-04-02T21:20:27.061Z,8.60
2023-04-02T21:21:59.158Z,12.48
2023-04-02T21:23:32.287Z,9.43
2023-04-02T21:25:04.703Z,9.02
2023-04-02T21:26:39.419Z,8.68
2023-04-02T21:28:11.639Z,7.75
2023-04-02T21:29:46.143Z,9.68
2023-04-02T21:31:20.798Z,9.60
2023-04-02T21:32:56.185Z,7.40
2023-04-02T21:34:28.380Z,10.85
2023-04-02T21:36:11.786Z,9.50
2023-04-02T21:39:23.831Z,9.50
2023-04-02T21:40:56.067Z,10.82
2023-04-02T21:42:31.082Z,15.90
2023-04-02T21:44:05.612Z,13.02
2023-04-02T21:45:39.829Z,10.60
2023-04-02T21:47:22.178Z,14.27
2023-04-02T21:48:59.474Z,12.00
2023-04-02T21:50:31.589Z,10.30
2023-04-02T21:52:06.057Z,8.10
2023-04-02T21:53:41.186Z,12.90
2023-04-02T21:55:20.566Z,11.50
2023-04-02T21:56:53.071Z,10.00
2023-04-02T21:58:25.195Z,9.82
2023-04-02T22:00:03.086Z,10.55
2023-04-02T22:01:39.453Z,13.07
2023-04-02T22:03:13.674Z,11.07
2023-04-02T22:04:52.328Z,9.52
2023-04-02T22:06:26.632Z,9.60
2023-04-02T22:07:58.822Z,11.30
2023-04-02T22:09:31.102Z,9.65
2023-04-02T22:11:17.558Z,11.48
2023-04-02T22:12:49.714Z,9.52
2023-04-02T22:14:26.322Z,13.65
2023-04-02T22:16:06.899Z,12.80
2023-04-02T22:17:39.210Z,9.32
2023-04-02T22:19:21.078Z,8.55
2023-04-02T22:21:00.755Z,10.18
2023-04-02T22:22:36.508Z,11.18
2023-04-02T22:24:13.943Z,11.93
2023-04-02T22:25:46.150Z,9.07
2023-04-02T22:27:18.429Z,10.90
2023-04-02T22:28:53.010Z,9.45
2023-04-02T22:30:26.949Z,9.25
2023-04-02T22:31:59.222Z,9.02
2023-04-02T22:33:36.560Z,10.23
2023-04-02T22:35:09.130Z,9.90
2023-04-02T22:36:41.651Z,12.38
2023-04-02T22:38:15.857Z,8.02
2023-04-02T22:39:49.012Z,9.43
2023-04-02T22:41:23.902Z,8.88
2023-04-02T22:42:56.367Z,9.07
2023-04-02T22:44:29.895Z,9.02
2023-04-02T22:46:02.696Z,12.32
2023-04-02T22:49:09.464Z,8.82
2023-04-02T22:50:51.255Z,9.75
2023-04-02T22:52:23.391Z,10.48
2023-04-02T22:53:56.382Z,8.02
2023-04-02T22:55:28.633Z,8.98
2023-04-02T22:57:00.837Z,7.97
2023-04-02T22:58:33.420Z,9.98
2023-04-02T23:00:17.857Z,11.32
2023-04-02T23:01:50.161Z,8.27
2023-04-02T23:03:22.395Z,9.82
2023-04-02T23:04:59.441Z,7.97
2023-04-02T23:06:31.589Z,10.77
2023-04-02T23:08:05.692Z,8.32
2023-04-02T23:09:37.817Z,11.18
2023-04-02T23:11:16.314Z,15.33
2023-04-02T23:12:48.407Z,10.48
2023-04-02T23:14:21.802Z,9.68
2023-04-02T23:15:53.891Z,13.88
2023-04-02T23:17:31.400Z,10.45
2023-04-02T23:19:03.877Z,9.82
2023-04-02T23:20:36.370Z,10.30
2023-04-02T23:22:09.743Z,9.27
2023-04-02T23:23:41.869Z,8.38
2023-04-02T23:25:13.895Z,10.35
2023-04-02T23:26:46.151Z,10.60
2023-04-02T23:28:18.630Z,10.05
2023-04-02T23:29:53.987Z,9.63
2023-04-02T23:31:26.701Z,10.85
2023-04-02T23:32:59.175Z,9.88
2023-04-02T23:34:31.918Z,10.63
2023-04-02T23:36:19.126Z,12.77
2023-04-02T23:37:51.347Z,11.30
2023-04-02T23:39:23.459Z,10.77
2023-04-02T23:40:55.733Z,9.15
2023-04-02T23:42:28.437Z,9.77
2023-04-02T23:44:03.123Z,10.70
2023-04-02T23:45:35.220Z,9.27
2023-04-02T23:47:07.254Z,10.00
2023-04-02T23:48:39.398Z,10.48
2023-04-02T23:50:11.706Z,10.77
2023-04-02T23:51:43.792Z,8.63
2023-04-02T23:53:16.760Z,12.95
2023-04-02T23:54:48.951Z,10.88
2023-04-02T23:56:26.181Z,9.30
2023-04-02T23:58:00.678Z,11.88
2023-04-02T23:59:35.039Z,11.70
